Rockenbach Airport

Jump to: basic info | weather | runways | comments

Related pages: nearby airports | nearby navaids | notams | map

Basic information (top)

Codes: LL97
Location: lon 42.338902, lat -88.084801, elev 800 ft / 244 m msl
Status: small_airport

Weather (top)

Current conditions for Waukegan Regional Airport 11nm (20km) ENE (rec'd 2015/04/01 08:55Z):

KUGN 010855Z AUTO 34004KT 10SM CLR 01/M01 A2997 RMK AO2 SLP156 T00061006 51008

Airport forecast for Kenosha Regional Airport 17nm (31km) NNE (rec'd 2015/04/01 06:21Z):

TAF KENW 010520Z 0106/0206 23004KT P6SM SKC 
     FM010800 36004KT P6SM FEW250 
      TEMPO 0110/0113 3SM BR 
     FM011300 08004KT P6SM SCT110 
     FM011700 13009KT P6SM FEW250 
     FM012200 16013G18KT P6SM FEW250 
     FM020200 18011G18KT P6SM SCT250 WS020/20055KT

Runways (top)

N/S: 2,000 x 100 ft (610 x 30 m) — grass — not lighted

Latest comments (top)

No comments yet for Rockenbach Airport

More... (top)

See also NOTAMs and nearby airports and navaids, or visit the Rockenbach Airport page at the main OurAirports website..